Mt. Parna Berlian 2 — PNVY — position and weather

sailwx.info

Track history (hours):
 
Tides and Currents Weather Stations Pressure Air Temp Water Temp Dewpoint Dewpoint Depression Visibility Wind Speed Wind Dir Waves Ship Positions

Mt. Parna Berlian 2

Last reported at 2018-Aug-10 19:04 UTC. Time now 2018-Aug-20 16:21 UTC.
Position S 06°51' E 112°26'.
Warning: this ship's position is 9 days out of date.

Length 126 m; draft 6 m.

Type: Ship (hazmat cat A). MMSI: 525015816.

Date/timePositionNaut miles runAvg speedWind from/ knotsBaromVisibWave heightAir tempDewpointWater temp
2018-Aug-10 19:04S 06°51' E 112°26'0 0.0
2018-Aug-10 18:52S 06°51' E 112°26'0 0.0
2018-Aug-10 18:28S 06°51' E 112°26'16 1.7
2018-Aug-10 08:57S 06°49' E 112°42'13 7.2
2018-Aug-10 07:07S 07°02' E 112°40'1 8.1
2018-Aug-10 06:57S 07°03' E 112°40'2 0.5
2018-Aug-10 03:37S 07°05' E 112°40'0 0.0
2018-Aug-09 15:22S 07°05' E 112°40'0 0.0
2018-Aug-09 14:58S 07°05' E 112°40'0 0.0
2018-Aug-09 11:37S 07°05' E 112°40'0 0.0
2018-Aug-09 10:31S 07°05' E 112°40'0 0.0
2018-Aug-09 08:43S 07°05' E 112°40'0 0.0
2018-Aug-09 08:16S 07°05' E 112°40'0 0.0
2018-Aug-09 07:40S 07°05' E 112°40'0 0.1
2018-Aug-09 06:22S 07°05' E 112°40'0 0.0
2018-Aug-09 04:34S 07°05' E 112°40'0 0.0
2018-Aug-09 04:04S 07°05' E 112°40'0 0.0
2018-Aug-09 03:49S 07°05' E 112°40'0 0.0
2018-Aug-09 01:19S 07°05' E 112°40'0 0.0
2018-Aug-09 00:55S 07°05' E 112°40'0 0.1
2018-Aug-08 23:07S 07°05' E 112°40'0 0.0
2018-Aug-08 21:43S 07°05' E 112°40'0 0.0
2018-Aug-08 21:13S 07°05' E 112°40'0 0.0
2018-Aug-08 20:46S 07°05' E 112°40'0 0.1
2018-Aug-08 19:28S 07°05' E 112°40'0 0.1
2018-Aug-08 18:34S 07°05' E 112°40'0 0.0
2018-Aug-08 18:19S 07°05' E 112°40'0 0.0
2018-Aug-08 14:52S 07°05' E 112°40'0 0.0
2018-Aug-08 13:25S 07°05' E 112°40'0 0.0
2018-Aug-08 06:55S 07°05' E 112°40'0 0.1
2018-Aug-08 05:28S 07°05' E 112°40'0 0.1
2018-Aug-08 04:52S 07°05' E 112°40'0 0.0
2018-Aug-08 02:52S 07°05' E 112°40'0 0.0
2018-Aug-08 00:46S 07°05' E 112°40'0 0.0
2018-Aug-07 17:40S 07°05' E 112°40'0 0.0
2018-Aug-07 17:10S 07°05' E 112°40'0 0.0
2018-Aug-07 14:46S 07°05' E 112°40'0 0.0
2018-Aug-07 12:55S 07°05' E 112°40'0 0.1
2018-Aug-07 12:25S 07°05' E 112°40'0 0.2
2018-Aug-07 11:40S 07°05' E 112°40'0 0.0
2018-Aug-07 03:31S 07°05' E 112°40'0 0.4
2018-Aug-07 03:22S 07°05' E 112°40'0 0.1
2018-Aug-07 02:55S 07°05' E 112°40'0 0.0
2018-Aug-07 02:22S 07°05' E 112°40'0 0.0
2018-Aug-07 01:10S 07°05' E 112°40'0 0.0
2018-Aug-07 00:04S 07°05' E 112°40'0 0.0
2018-Aug-06 23:58S 07°05' E 112°40'0 0.0
2018-Aug-06 23:28S 07°05' E 112°40'0 0.0
2018-Aug-06 21:16S 07°05' E 112°40'0 0.1
2018-Aug-06 20:52S 07°05' E 112°40'0 0.0
2018-Aug-06 19:01S 07°05' E 112°40'0 0.0
2018-Aug-06 18:37S 07°05' E 112°40'0 0.0
2018-Aug-06 18:16S 07°05' E 112°40'0 0.0
2018-Aug-06 16:49S 07°05' E 112°40'0 0.0
2018-Aug-06 14:49S 07°05' E 112°40'0 0.0
2018-Aug-06 12:43S 07°05' E 112°40'0 0.0
2018-Aug-06 12:25S 07°05' E 112°40'0 0.0
2018-Aug-06 08:16S 07°05' E 112°40'0 0.0
2018-Aug-06 07:58S 07°05' E 112°40'0 0.0
2018-Aug-06 06:58S 07°05' E 112°40'0 0.0
2018-Aug-05 23:49S 07°05' E 112°40'0 0.0
2018-Aug-05 22:25S 07°05' E 112°40'0 0.0
2018-Aug-05 17:28S 07°05' E 112°40'0 0.0
2018-Aug-03 21:57S 07°05' E 112°40'0 0.0
2018-Aug-03 13:57S 07°05' E 112°40'0 0.0
2018-Aug-03 10:30S 07°05' E 112°40'0 0.0
2018-Aug-02 14:45S 07°05' E 112°40'0 0.0
2018-Aug-02 02:09S 07°05' E 112°40'0 0.1
2018-Aug-02 00:48S 07°05' E 112°40'0 0.1
2018-Aug-02 00:21S 07°05' E 112°40'0 0.0
2018-Aug-01 23:39S 07°05' E 112°40'0 0.0
2018-Aug-01 23:21S 07°05' E 112°40'0 0.0
2018-Aug-01 22:51S 07°05' E 112°40'0 0.0
2018-Aug-01 13:45S 07°05' E 112°40'0 0.0
2018-Aug-01 13:30S 07°05' E 112°40'0 0.0
2018-Aug-01 08:45S 07°05' E 112°40'0 0.0
2018-Aug-01 05:06S 07°05' E 112°40'0 0.0
2018-Aug-01 04:48S 07°05' E 112°40'0 0.0
2018-Aug-01 04:24S 07°05' E 112°40'0 0.0
2018-Aug-01 04:00S 07°05' E 112°40'0 0.0
2018-Aug-01 03:24S 07°05' E 112°40'0 0.0
2018-Aug-01 01:57S 07°05' E 112°40'0 0.0
2018-Aug-01 01:27S 07°05' E 112°40'0 0.0
2018-Jul-31 21:33S 07°05' E 112°40'0 0.0
2018-Jul-31 21:15S 07°05' E 112°40'0 0.0
2018-Jul-31 20:24S 07°05' E 112°40'  
Track history (hours):
 
Tides and Currents Weather Stations Pressure Air Temp Water Temp Dewpoint Dewpoint Depression Visibility Wind Speed Wind Dir Waves Ship Positions

Mt. Parna Berlian 2

Last reported at 2018-Aug-10 19:04 UTC. Time now 2018-Aug-20 16:21 UTC.
Position S 06°51' E 112°26'.
Warning: this ship's position is 9 days out of date.

Length 126 m; draft 6 m.

Type: Ship (hazmat cat A). MMSI: 525015816.

Date/timePositionNaut miles runAvg speedWind from/ knotsBaromVisibWave heightAir tempDewpointWater temp
2018-Aug-10 19:04S 06°51' E 112°26'0 0.0
2018-Aug-10 18:52S 06°51' E 112°26'0 0.0
2018-Aug-10 18:28S 06°51' E 112°26'16 1.7
2018-Aug-10 08:57S 06°49' E 112°42'13 7.2
2018-Aug-10 07:07S 07°02' E 112°40'1 8.1
2018-Aug-10 06:57S 07°03' E 112°40'2 0.5
2018-Aug-10 03:37S 07°05' E 112°40'0 0.0
2018-Aug-09 15:22S 07°05' E 112°40'0 0.0
2018-Aug-09 14:58S 07°05' E 112°40'0 0.0
2018-Aug-09 11:37S 07°05' E 112°40'0 0.0
2018-Aug-09 10:31S 07°05' E 112°40'0 0.0
2018-Aug-09 08:43S 07°05' E 112°40'0 0.0
2018-Aug-09 08:16S 07°05' E 112°40'0 0.0
2018-Aug-09 07:40S 07°05' E 112°40'0 0.1
2018-Aug-09 06:22S 07°05' E 112°40'0 0.0
2018-Aug-09 04:34S 07°05' E 112°40'0 0.0
2018-Aug-09 04:04S 07°05' E 112°40'0 0.0
2018-Aug-09 03:49S 07°05' E 112°40'0 0.0
2018-Aug-09 01:19S 07°05' E 112°40'0 0.0
2018-Aug-09 00:55S 07°05' E 112°40'0 0.1
2018-Aug-08 23:07S 07°05' E 112°40'0 0.0
2018-Aug-08 21:43S 07°05' E 112°40'0 0.0
2018-Aug-08 21:13S 07°05' E 112°40'0 0.0
2018-Aug-08 20:46S 07°05' E 112°40'0 0.1
2018-Aug-08 19:28S 07°05' E 112°40'0 0.1
2018-Aug-08 18:34S 07°05' E 112°40'0 0.0
2018-Aug-08 18:19S 07°05' E 112°40'0 0.0
2018-Aug-08 14:52S 07°05' E 112°40'0 0.0
2018-Aug-08 13:25S 07°05' E 112°40'0 0.0
2018-Aug-08 06:55S 07°05' E 112°40'0 0.1
2018-Aug-08 05:28S 07°05' E 112°40'0 0.1
2018-Aug-08 04:52S 07°05' E 112°40'0 0.0
2018-Aug-08 02:52S 07°05' E 112°40'0 0.0
2018-Aug-08 00:46S 07°05' E 112°40'0 0.0
2018-Aug-07 17:40S 07°05' E 112°40'0 0.0
2018-Aug-07 17:10S 07°05' E 112°40'0 0.0
2018-Aug-07 14:46S 07°05' E 112°40'0 0.0
2018-Aug-07 12:55S 07°05' E 112°40'0 0.1
2018-Aug-07 12:25S 07°05' E 112°40'0 0.2
2018-Aug-07 11:40S 07°05' E 112°40'0 0.0
2018-Aug-07 03:31S 07°05' E 112°40'0 0.4
2018-Aug-07 03:22S 07°05' E 112°40'0 0.1
2018-Aug-07 02:55S 07°05' E 112°40'0 0.0
2018-Aug-07 02:22S 07°05' E 112°40'0 0.0
2018-Aug-07 01:10S 07°05' E 112°40'0 0.0
2018-Aug-07 00:04S 07°05' E 112°40'0 0.0
2018-Aug-06 23:58S 07°05' E 112°40'0 0.0
2018-Aug-06 23:28S 07°05' E 112°40'0 0.0
2018-Aug-06 21:16S 07°05' E 112°40'0 0.1
2018-Aug-06 20:52S 07°05' E 112°40'0 0.0
2018-Aug-06 19:01S 07°05' E 112°40'0 0.0
2018-Aug-06 18:37S 07°05' E 112°40'0 0.0
2018-Aug-06 18:16S 07°05' E 112°40'0 0.0
2018-Aug-06 16:49S 07°05' E 112°40'0 0.0
2018-Aug-06 14:49S 07°05' E 112°40'0 0.0
2018-Aug-06 12:43S 07°05' E 112°40'0 0.0
2018-Aug-06 12:25S 07°05' E 112°40'0 0.0
2018-Aug-06 08:16S 07°05' E 112°40'0 0.0
2018-Aug-06 07:58S 07°05' E 112°40'0 0.0
2018-Aug-06 06:58S 07°05' E 112°40'0 0.0
2018-Aug-05 23:49S 07°05' E 112°40'0 0.0
2018-Aug-05 22:25S 07°05' E 112°40'0 0.0
2018-Aug-05 17:28S 07°05' E 112°40'0 0.0
2018-Aug-03 21:57S 07°05' E 112°40'0 0.0
2018-Aug-03 13:57S 07°05' E 112°40'0 0.0
2018-Aug-03 10:30S 07°05' E 112°40'0 0.0
2018-Aug-02 14:45S 07°05' E 112°40'0 0.0
2018-Aug-02 02:09S 07°05' E 112°40'0 0.1
2018-Aug-02 00:48S 07°05' E 112°40'0 0.1
2018-Aug-02 00:21S 07°05' E 112°40'0 0.0
2018-Aug-01 23:39S 07°05' E 112°40'0 0.0
2018-Aug-01 23:21S 07°05' E 112°40'0 0.0
2018-Aug-01 22:51S 07°05' E 112°40'0 0.0
2018-Aug-01 13:45S 07°05' E 112°40'0 0.0
2018-Aug-01 13:30S 07°05' E 112°40'0 0.0
2018-Aug-01 08:45S 07°05' E 112°40'0 0.0
2018-Aug-01 05:06S 07°05' E 112°40'0 0.0
2018-Aug-01 04:48S 07°05' E 112°40'0 0.0
2018-Aug-01 04:24S 07°05' E 112°40'0 0.0
2018-Aug-01 04:00S 07°05' E 112°40'0 0.0
2018-Aug-01 03:24S 07°05' E 112°40'0 0.0
2018-Aug-01 01:57S 07°05' E 112°40'0 0.0
2018-Aug-01 01:27S 07°05' E 112°40'0 0.0
2018-Jul-31 21:33S 07°05' E 112°40'0 0.0
2018-Jul-31 21:15S 07°05' E 112°40'0 0.0
2018-Jul-31 20:24S 07°05' E 112°40'  

Dump ship's entire track history